Time;durP1;ratioP1;P1;durP2;ratioP2;P2;SDS_P1;SDS_P2;PMS_P1;PMS_P2;Temp;Humidity;BMP_temperature;BMP_pressure;BME280_temperature;BME280_humidity;BME280_pressure;Samples;Min_cycle;Max_cycle;Signal;HPM_P1;HPM_P2
2023/09/22 00:05:47;;;;;;;7.40;2.60;;;;;;;;;;5074989;28;20304;-74
2023/09/22 00:08:15;;;;;;;3.20;2.80;;;;;;;;;;5056941;28;20190;-74
2023/09/22 00:14:35;;;;;;;4.33;2.60;;;;;;;;;;5074300;28;20281;-75
2023/09/22 00:17:19;;;;;;;7.20;3.07;;;;;;;;;;5059925;28;20158;-74
2023/09/22 00:19:46;;;;;;;4.83;3.00;;;;;;;;;;5074484;28;20202;-74
2023/09/22 00:22:13;;;;;;;3.83;2.70;;;;;;;;;;5074875;28;20190;-74
2023/09/22 00:24:39;;;;;;;5.30;2.73;;;;;;;;;;5040115;28;20632;-74
2023/09/22 00:27:06;;;;;;;4.13;2.70;;;;;;;;;;5074804;28;20617;-74
2023/09/22 00:29:33;;;;;;;6.53;2.73;;;;;;;;;;5075299;28;20186;-74
2023/09/22 00:31:59;;;;;;;3.80;3.00;;;;;;;;;;5074470;28;20206;-75
2023/09/22 00:34:26;;;;;;;5.80;2.90;;;;;;;;;;5055959;28;20186;-74
2023/09/22 00:40:52;;;;;;;3.37;2.80;;;;;;;;;;5074220;28;20604;-75
2023/09/22 00:43:19;;;;;;;5.03;2.80;;;;;;;;;;5040752;28;20259;-74
2023/09/22 00:45:47;;;;;;;5.47;3.10;;;;;;;;;;5056584;28;20235;-74
2023/09/22 00:52:13;;;;;;;5.93;2.80;;;;;;;;;;5073963;28;20161;-74
2023/09/22 00:54:40;;;;;;;6.57;2.93;;;;;;;;;;5039612;28;20300;-74
2023/09/22 01:01:01;;;;;;;4.77;2.73;;;;;;;;;;5073746;28;20616;-74
2023/09/22 01:03:30;;;;;;;7.23;3.10;;;;;;;;;;5074530;28;20185;-74
2023/09/22 01:05:57;;;;;;;5.87;2.77;;;;;;;;;;5073431;28;20221;-74
2023/09/22 01:08:23;;;;;;;5.50;3.03;;;;;;;;;;5074089;28;20182;-74
2023/09/22 01:46:33;;;;;;;3.87;2.70;;;;;;;;;;5075291;28;20156;-74
2023/09/22 01:52:59;;;;;;;5.23;3.03;;;;;;;;;;5077674;28;20145;-74
2023/09/22 01:59:25;;;;;;;6.20;2.90;;;;;;;;;;5077183;28;20156;-75
2023/09/22 02:01:52;;;;;;;4.23;3.17;;;;;;;;;;5043770;28;20269;-74
2023/09/22 02:04:19;;;;;;;7.83;3.40;;;;;;;;;;5077144;28;20505;-74
2023/09/22 02:06:46;;;;;;;3.03;2.73;;;;;;;;;;5043180;28;20243;-74
2023/09/22 02:09:13;;;;;;;6.37;2.87;;;;;;;;;;5059692;28;20499;-73
2023/09/22 02:11:40;;;;;;;6.03;3.00;;;;;;;;;;5059428;28;20178;-74
2023/09/22 02:14:07;;;;;;;4.17;3.07;;;;;;;;;;5059504;28;20617;-74
2023/09/22 02:20:44;;;;;;;5.07;2.73;;;;;;;;;;5076692;28;20219;-74
2023/09/22 02:23:28;;;;;;;3.13;2.80;;;;;;;;;;5059098;28;20170;-74
2023/09/22 02:29:54;;;;;;;3.47;2.90;;;;;;;;;;5076861;28;20181;-73
2023/09/22 02:40:20;;;;;;;4.00;2.83;;;;;;;;;;5076447;28;20196;-74
2023/09/22 02:42:48;;;;;;;4.63;2.97;;;;;;;;;;5042540;28;20221;-73
2023/09/22 02:45:15;;;;;;;3.77;2.97;;;;;;;;;;5042019;28;20641;-74
2023/09/22 02:47:42;;;;;;;5.37;3.17;;;;;;;;;;5058621;28;20198;-74
2023/09/22 02:50:10;;;;;;;7.07;3.33;;;;;;;;;;5058835;28;20182;-74
2023/09/22 02:52:38;;;;;;;5.97;3.10;;;;;;;;;;5058231;28;20186;-74
2023/09/22 02:55:09;;;;;;;4.63;3.00;;;;;;;;;;5076144;28;20210;-74
2023/09/22 03:01:36;;;;;;;6.07;3.50;;;;;;;;;;5076132;28;20188;-74
2023/09/22 03:04:20;;;;;;;4.50;3.00;;;;;;;;;;5060665;28;20233;-74
2023/09/22 03:06:47;;;;;;;5.27;2.87;;;;;;;;;;5042574;28;20505;-74
2023/09/22 03:13:07;;;;;;;4.27;3.13;;;;;;;;;;5075915;28;20225;-73
2023/09/22 03:19:45;;;;;;;5.37;3.50;;;;;;;;;;5075559;28;20181;-74
2023/09/22 03:26:11;;;;;;;5.53;3.00;;;;;;;;;;5075722;28;20162;-74
2023/09/22 03:28:38;;;;;;;4.73;3.10;;;;;;;;;;5041441;28;20194;-74
2023/09/22 03:35:06;;;;;;;4.13;3.07;;;;;;;;;;5075351;28;20296;-77
2023/09/22 03:37:34;;;;;;;4.90;3.00;;;;;;;;;;5041714;28;20196;-72
2023/09/22 03:40:31;;;;;;;5.50;2.93;;;;;;;;;;5075606;28;20169;-75
2023/09/22 03:42:58;;;;;;;6.27;3.30;;;;;;;;;;5043396;28;20281;-77
2023/09/22 03:49:19;;;;;;;4.17;2.90;;;;;;;;;;5075444;28;20194;-81
2023/09/22 03:55:41;;;;;;;6.80;3.80;;;;;;;;;;5075207;28;20232;-78
2023/09/22 03:58:08;;;;;;;5.77;3.47;;;;;;;;;;5075211;28;20613;-76
2023/09/22 04:04:41;;;;;;;5.33;3.77;;;;;;;;;;5075112;28;20564;-76
2023/09/22 04:07:09;;;;;;;5.70;3.50;;;;;;;;;;5057155;28;20506;-79
2023/09/22 04:13:30;;;;;;;6.07;3.63;;;;;;;;;;5075145;28;20513;-81
2023/09/22 04:15:58;;;;;;;9.00;3.60;;;;;;;;;;5041454;28;20206;-80
2023/09/22 04:18:31;;;;;;;5.20;3.70;;;;;;;;;;5040543;28;20214;-81
2023/09/22 04:25:00;;;;;;;6.10;3.90;;;;;;;;;;5075231;28;20154;-82
2023/09/22 04:27:32;;;;;;;6.33;3.73;;;;;;;;;;5043211;28;20197;-82
2023/09/22 04:30:00;;;;;;;6.03;3.40;;;;;;;;;;5057860;28;20193;-83
2023/09/22 04:36:23;;;;;;;7.33;3.80;;;;;;;;;;5075537;28;20204;-75
2023/09/22 04:42:54;;;;;;;5.90;4.00;;;;;;;;;;5055010;28;20566;-75
2023/09/22 04:45:23;;;;;;;8.43;4.10;;;;;;;;;;5054470;28;20638;-74
2023/09/22 04:47:52;;;;;;;6.53;4.00;;;;;;;;;;5021244;28;20554;-74
2023/09/22 04:50:24;;;;;;;6.80;3.43;;;;;;;;;;5022401;28;20187;-74
2023/09/22 04:52:54;;;;;;;5.13;3.87;;;;;;;;;;5038349;28;20642;-75
2023/09/22 04:55:31;;;;;;;6.50;4.03;;;;;;;;;;5021342;28;20206;-74
2023/09/22 04:58:18;;;;;;;5.27;3.83;;;;;;;;;;5024152;28;20171;-74
2023/09/22 05:00:54;;;;;;;6.57;3.93;;;;;;;;;;5021963;28;20273;-74
2023/09/22 05:03:22;;;;;;;4.50;3.97;;;;;;;;;;5004919;28;20183;-76
2023/09/22 05:05:49;;;;;;;7.47;4.10;;;;;;;;;;5069477;28;20226;-74
2023/09/22 05:08:17;;;;;;;6.63;4.00;;;;;;;;;;5037018;28;20191;-74
2023/09/22 05:10:48;;;;;;;5.17;3.77;;;;;;;;;;5020847;28;20191;-75
2023/09/22 05:13:17;;;;;;;6.57;4.03;;;;;;;;;;5069937;28;20186;-74
2023/09/22 05:15:46;;;;;;;6.70;3.80;;;;;;;;;;5036215;28;20609;-74
2023/09/22 05:22:13;;;;;;;6.50;3.53;;;;;;;;;;5054052;28;20153;-74
2023/09/22 05:24:41;;;;;;;5.67;4.10;;;;;;;;;;5069262;28;20186;-73
2023/09/22 05:27:12;;;;;;;5.00;3.97;;;;;;;;;;5011992;28;20220;-73
2023/09/22 05:29:43;;;;;;;5.70;3.77;;;;;;;;;;5069702;28;20209;-73
2023/09/22 05:32:12;;;;;;;6.13;3.70;;;;;;;;;;5053956;28;20315;-73
2023/09/22 05:34:43;;;;;;;7.60;3.83;;;;;;;;;;5035987;28;20600;-72
2023/09/22 05:37:15;;;;;;;6.67;3.77;;;;;;;;;;5020215;28;20218;-77
2023/09/22 05:43:45;;;;;;;7.17;4.10;;;;;;;;;;5055911;28;20185;-77
2023/09/22 05:46:13;;;;;;;6.17;3.87;;;;;;;;;;5037320;28;20210;-76
2023/09/22 05:48:43;;;;;;;6.23;3.73;;;;;;;;;;5020374;28;20652;-77
2023/09/22 05:51:12;;;;;;;7.23;4.07;;;;;;;;;;5054302;28;20210;-76
2023/09/22 05:53:39;;;;;;;7.40;3.97;;;;;;;;;;5020936;28;20193;-76
2023/09/22 06:00:07;;;;;;;8.90;4.40;;;;;;;;;;5055398;28;20189;-77
2023/09/22 06:02:34;;;;;;;5.97;3.70;;;;;;;;;;5036674;28;20240;-79
2023/09/22 06:09:10;;;;;;;7.03;4.30;;;;;;;;;;5053924;28;20259;-78
2023/09/22 06:15:38;;;;;;;6.37;3.90;;;;;;;;;;5054040;28;20213;-76
2023/09/22 06:22:10;;;;;;;7.97;4.40;;;;;;;;;;5070465;28;20235;-78
2023/09/22 06:24:37;;;;;;;6.97;4.00;;;;;;;;;;5060112;28;20225;-78
2023/09/22 06:30:59;;;;;;;5.37;3.80;;;;;;;;;;5095739;28;20682;-76
2023/09/22 06:33:30;;;;;;;7.13;4.40;;;;;;;;;;5078916;28;20243;-76
2023/09/22 06:36:04;;;;;;;5.80;4.00;;;;;;;;;;5079514;28;20718;-77
2023/09/22 06:38:33;;;;;;;9.13;4.20;;;;;;;;;;5097888;28;20164;-76
2023/09/22 06:48:30;;;;;;;8.87;4.33;;;;;;;;;;5056896;28;20221;-77
2023/09/22 06:51:00;;;;;;;6.07;4.00;;;;;;;;;;5040494;28;20197;-83
2023/09/22 06:53:40;;;;;;;7.50;3.87;;;;;;;;;;5039600;28;20532;-71
2023/09/22 07:00:16;;;;;;;5.77;3.60;;;;;;;;;;5076510;28;20156;-72
2023/09/22 07:06:44;;;;;;;7.43;3.60;;;;;;;;;;5074760;28;20584;-72
2023/09/22 07:09:13;;;;;;;10.83;4.43;;;;;;;;;;5041109;28;20572;-71
2023/09/22 07:16:13;;;;;;;7.17;3.93;;;;;;;;;;5075818;28;20598;-71
2023/09/22 07:18:40;;;;;;;5.93;3.67;;;;;;;;;;5076216;28;20284;-72
2023/09/22 07:21:25;;;;;;;6.67;3.23;;;;;;;;;;5076530;28;20686;-71
2023/09/22 07:23:51;;;;;;;7.37;3.83;;;;;;;;;;5058512;28;20265;-72
2023/09/22 07:26:44;;;;;;;8.77;3.47;;;;;;;;;;5074720;28;20210;-72
2023/09/22 07:29:11;;;;;;;7.93;3.30;;;;;;;;;;5041259;28;20213;-71
2023/09/22 07:35:32;;;;;;;8.23;3.73;;;;;;;;;;5075773;28;20180;-71
2023/09/22 07:37:59;;;;;;;7.50;3.27;;;;;;;;;;5075637;28;20197;-71
2023/09/22 07:40:27;;;;;;;9.33;3.73;;;;;;;;;;5057789;28;20569;-72
2023/09/22 07:42:54;;;;;;;5.63;3.70;;;;;;;;;;5057800;28;20196;-71
2023/09/22 07:45:22;;;;;;;8.27;3.77;;;;;;;;;;5055320;28;20683;-71
2023/09/22 07:47:50;;;;;;;7.13;3.53;;;;;;;;;;5056779;28;20189;-71
2023/09/22 07:50:17;;;;;;;5.10;3.63;;;;;;;;;;5075078;28;20208;-72
2023/09/22 07:53:02;;;;;;;6.43;3.97;;;;;;;;;;5057394;28;20201;-72
2023/09/22 07:55:31;;;;;;;8.40;3.60;;;;;;;;;;5075875;28;20537;-72
2023/09/22 07:57:58;;;;;;;6.30;3.40;;;;;;;;;;5075267;28;20182;-72
2023/09/22 08:00:26;;;;;;;5.13;3.53;;;;;;;;;;5040964;28;20194;-71
2023/09/22 08:03:14;;;;;;;5.77;3.50;;;;;;;;;;5056670;28;20186;-72
2023/09/22 08:05:41;;;;;;;4.40;3.50;;;;;;;;;;5056210;28;20200;-72
2023/09/22 08:08:10;;;;;;;6.30;3.87;;;;;;;;;;5066840;28;20716;-71
2023/09/22 08:10:38;;;;;;;6.07;3.50;;;;;;;;;;5075027;28;20185;-71
2023/09/22 08:16:59;;;;;;;8.43;3.90;;;;;;;;;;5055330;28;20217;-71
2023/09/22 08:23:53;;;;;;;7.87;3.93;;;;;;;;;;5047657;28;20162;-71
2023/09/22 08:26:41;;;;;;;8.60;3.63;;;;;;;;;;5054696;28;20242;-70
2023/09/22 08:29:14;;;;;;;9.40;3.50;;;;;;;;;;5038045;28;20216;-71
2023/09/22 08:31:46;;;;;;;10.47;3.80;;;;;;;;;;5053251;28;20203;-71
2023/09/22 08:34:14;;;;;;;7.23;3.20;;;;;;;;;;5038560;28;20198;-71
2023/09/22 08:36:43;;;;;;;8.10;3.70;;;;;;;;;;5021112;28;20281;-72
2023/09/22 08:39:15;;;;;;;7.37;3.80;;;;;;;;;;5037083;28;20533;-72
2023/09/22 08:49:36;;;;;;;10.23;3.70;;;;;;;;;;5054013;28;20173;-71
2023/09/22 08:52:04;;;;;;;7.57;3.57;;;;;;;;;;5054502;28;20182;-71
2023/09/22 08:58:25;;;;;;;13.07;3.87;;;;;;;;;;5054195;28;20625;-72
2023/09/22 09:01:10;;;;;;;5.80;3.30;;;;;;;;;;5037934;28;20205;-71
2023/09/22 09:07:38;;;;;;;7.60;3.40;;;;;;;;;;5053389;28;20541;-72
2023/09/22 09:10:05;;;;;;;7.33;3.93;;;;;;;;;;5054643;28;20186;-71
2023/09/22 09:12:33;;;;;;;9.47;4.03;;;;;;;;;;5054254;28;20194;-72
2023/09/22 09:15:00;;;;;;;6.00;3.70;;;;;;;;;;5020219;28;20538;-71
2023/09/22 09:17:28;;;;;;;9.70;4.20;;;;;;;;;;5036489;28;20558;-71
2023/09/22 09:19:56;;;;;;;6.17;3.57;;;;;;;;;;5051700;28;20245;-70
2023/09/22 09:22:30;;;;;;;8.97;4.30;;;;;;;;;;5053038;28;20199;-71
2023/09/22 09:25:47;;;;;;;10.53;4.10;;;;;;;;;;5039487;28;20256;-71
2023/09/22 09:28:15;;;;;;;6.67;3.70;;;;;;;;;;5036500;28;20237;-71
2023/09/22 09:30:51;;;;;;;6.40;3.73;;;;;;;;;;5035974;28;20200;-71
2023/09/22 09:33:23;;;;;;;5.97;4.03;;;;;;;;;;5053938;28;20178;-71
2023/09/22 09:35:50;;;;;;;7.33;3.80;;;;;;;;;;5054544;28;20187;-71
2023/09/22 09:38:20;;;;;;;9.30;3.80;;;;;;;;;;5051392;28;20197;-71
2023/09/22 09:40:51;;;;;;;7.67;4.00;;;;;;;;;;5019433;28;20201;-71
2023/09/22 09:47:39;;;;;;;8.47;4.20;;;;;;;;;;5053626;28;20181;-71
2023/09/22 09:54:26;;;;;;;6.50;3.63;;;;;;;;;;5053474;28;20214;-72
2023/09/22 09:56:53;;;;;;;7.37;3.80;;;;;;;;;;5052937;28;20608;-71
2023/09/22 09:59:20;;;;;;;9.47;4.20;;;;;;;;;;5051711;28;20202;-70
2023/09/22 10:01:47;;;;;;;7.20;3.90;;;;;;;;;;5052111;28;20258;-72
2023/09/22 10:04:20;;;;;;;9.30;3.73;;;;;;;;;;5050765;28;20240;-73
2023/09/22 10:06:48;;;;;;;6.87;3.80;;;;;;;;;;5054026;28;20281;-72
2023/09/22 10:09:18;;;;;;;5.20;3.57;;;;;;;;;;5058709;28;20216;-72
2023/09/22 10:11:45;;;;;;;8.83;3.73;;;;;;;;;;5056802;28;20734;-73
2023/09/22 10:14:30;;;;;;;7.83;3.73;;;;;;;;;;5039431;28;20284;-72
2023/09/22 10:17:21;;;;;;;8.43;4.10;;;;;;;;;;5057257;28;20259;-73
2023/09/22 10:20:20;;;;;;;7.67;4.10;;;;;;;;;;5037687;28;20234;-73
2023/09/22 10:23:14;;;;;;;6.43;3.67;;;;;;;;;;5038381;28;20211;-72
2023/09/22 10:29:42;;;;;;;10.07;4.30;;;;;;;;;;5056618;28;20528;-72
2023/09/22 10:32:19;;;;;;;9.00;3.70;;;;;;;;;;5038718;28;20643;-72
2023/09/22 10:34:49;;;;;;;6.30;3.87;;;;;;;;;;5057005;28;20163;-71
2023/09/22 10:37:52;;;;;;;10.53;3.90;;;;;;;;;;5038069;28;20203;-72
2023/09/22 10:40:19;;;;;;;10.43;3.47;;;;;;;;;;5056155;28;20163;-72
2023/09/22 10:46:22;;;;;;;8.33;3.53;;;;;;;;;;5056950;28;20231;-72
2023/09/22 10:48:49;;;;;;;8.10;3.80;;;;;;;;;;5022133;28;20283;-73
2023/09/22 10:55:37;;;;;;;6.70;3.47;;;;;;;;;;5071886;28;20210;-72
2023/09/22 10:58:04;;;;;;;8.67;3.60;;;;;;;;;;5075370;28;20205;-72
2023/09/22 11:00:42;;;;;;;6.17;3.37;;;;;;;;;;5057973;28;20194;-72
2023/09/22 11:03:09;;;;;;;8.50;3.80;;;;;;;;;;5041962;28;20506;-72
2023/09/22 11:05:36;;;;;;;9.00;3.60;;;;;;;;;;5058580;28;20183;-72
2023/09/22 11:08:13;;;;;;;8.23;3.50;;;;;;;;;;5075235;28;20301;-72
2023/09/22 11:10:41;;;;;;;6.93;3.60;;;;;;;;;;5076443;28;20613;-72
2023/09/22 11:16:24;;;;;;;9.87;3.53;;;;;;;;;;5075360;28;20199;-70
2023/09/22 11:19:04;;;;;;;8.93;3.57;;;;;;;;;;5058292;28;20552;-72
2023/09/22 11:25:31;;;;;;;6.77;3.17;;;;;;;;;;5070813;28;20686;-78
2023/09/22 11:32:00;;;;;;;7.77;3.20;;;;;;;;;;5074234;28;20258;-77
2023/09/22 11:34:27;;;;;;;7.70;3.67;;;;;;;;;;5043639;28;20198;-79
2023/09/22 11:36:55;;;;;;;6.70;3.87;;;;;;;;;;5057415;28;20646;-77
2023/09/22 11:43:22;;;;;;;7.03;3.63;;;;;;;;;;5055968;28;20233;-75
2023/09/22 11:53:25;;;;;;;5.67;3.87;;;;;;;;;;5076930;28;20157;-76
2023/09/22 12:03:45;;;;;;;9.17;3.60;;;;;;;;;;5076072;28;20148;-73
2023/09/22 12:09:53;;;;;;;9.13;3.80;;;;;;;;;;5036618;28;20695;-75
2023/09/22 12:12:27;;;;;;;6.77;4.00;;;;;;;;;;5036896;28;20198;-73
2023/09/22 12:22:59;;;;;;;7.70;3.63;;;;;;;;;;5055553;28;20155;-74
2023/09/22 12:25:29;;;;;;;6.77;3.83;;;;;;;;;;5058890;28;20209;-77
2023/09/22 12:27:58;;;;;;;9.33;3.77;;;;;;;;;;5058063;28;20197;-72
2023/09/22 12:46:09;;;;;;;9.90;4.23;;;;;;;;;;5075388;28;20180;-73
2023/09/22 12:48:41;;;;;;;12.33;3.93;;;;;;;;;;5074256;28;20224;-74
2023/09/22 12:51:11;;;;;;;10.17;3.70;;;;;;;;;;5075746;28;20213;-75
2023/09/22 12:53:38;;;;;;;7.40;3.60;;;;;;;;;;5074717;28;20190;-75
2023/09/22 12:56:05;;;;;;;9.97;3.67;;;;;;;;;;5057501;28;20498;-74
2023/09/22 12:58:34;;;;;;;10.10;3.97;;;;;;;;;;5040476;28;20351;-74
2023/09/22 13:01:18;;;;;;;5.60;3.37;;;;;;;;;;5073791;28;20253;-74
2023/09/22 13:03:46;;;;;;;9.97;3.87;;;;;;;;;;5055062;28;20621;-73
2023/09/22 13:06:14;;;;;;;11.00;3.53;;;;;;;;;;5073742;28;20193;-73
2023/09/22 13:08:41;;;;;;;9.97;3.70;;;;;;;;;;5038486;28;20652;-73
2023/09/22 13:11:07;;;;;;;9.00;3.43;;;;;;;;;;5073966;28;20269;-84
2023/09/22 13:17:28;;;;;;;7.47;3.90;;;;;;;;;;5071962;28;20200;-79
2023/09/22 13:20:06;;;;;;;8.17;3.50;;;;;;;;;;5044522;28;20247;-78
2023/09/22 13:22:34;;;;;;;8.07;3.67;;;;;;;;;;5066010;28;20204;-77
2023/09/22 13:36:32;;;;;;;7.87;4.27;;;;;;;;;;5071664;28;20273;-79
2023/09/22 13:47:04;;;;;;;12.93;4.73;;;;;;;;;;4975220;28;20256;-73
2023/09/22 13:49:32;;;;;;;11.40;4.73;;;;;;;;;;5052303;28;20549;-72
2023/09/22 13:52:16;;;;;;;10.53;4.97;;;;;;;;;;5040478;28;20627;-73
2023/09/22 13:54:43;;;;;;;12.07;4.17;;;;;;;;;;5040873;28;20184;-70
2023/09/22 13:57:10;;;;;;;14.87;4.40;;;;;;;;;;5062970;28;20196;-72
2023/09/22 13:59:38;;;;;;;9.07;4.20;;;;;;;;;;5027664;28;20182;-71
2023/09/22 14:02:06;;;;;;;12.37;4.07;;;;;;;;;;5065305;28;20194;-72
2023/09/22 14:04:37;;;;;;;11.17;3.80;;;;;;;;;;5054521;28;20349;-72
2023/09/22 14:07:04;;;;;;;11.70;4.07;;;;;;;;;;5070360;28;20190;-72
2023/09/22 14:09:34;;;;;;;13.00;4.20;;;;;;;;;;4969491;28;2460073;-73
2023/09/22 14:12:02;;;;;;;7.13;4.00;;;;;;;;;;5055949;28;20207;-72
2023/09/22 14:14:29;;;;;;;9.73;3.73;;;;;;;;;;5034481;28;20230;-72
2023/09/22 14:20:36;;;;;;;12.67;4.20;;;;;;;;;;5069326;28;20196;-76
2023/09/22 14:23:06;;;;;;;8.93;3.70;;;;;;;;;;5027255;28;20191;-74
2023/09/22 14:29:06;;;;;;;6.10;3.87;;;;;;;;;;5045956;28;20193;-73
2023/09/22 14:31:37;;;;;;;10.87;4.10;;;;;;;;;;5060137;28;20271;-74
2023/09/22 14:34:09;;;;;;;7.43;3.80;;;;;;;;;;5026467;28;20198;-74
2023/09/22 14:36:40;;;;;;;11.87;4.60;;;;;;;;;;5040980;28;20188;-82
2023/09/22 14:39:08;;;;;;;10.77;4.57;;;;;;;;;;5044357;28;20235;-81
2023/09/22 14:41:37;;;;;;;7.63;4.03;;;;;;;;;;5070469;28;20239;-82
2023/09/22 14:44:09;;;;;;;9.57;4.53;;;;;;;;;;5061993;28;20188;-82
2023/09/22 14:46:47;;;;;;;12.00;4.20;;;;;;;;;;5071923;28;20191;-81
2023/09/22 14:49:16;;;;;;;13.80;4.40;;;;;;;;;;5028170;28;20544;-81
2023/09/22 14:51:47;;;;;;;12.93;4.70;;;;;;;;;;5037053;28;20235;-78
2023/09/22 14:54:50;;;;;;;13.77;4.37;;;;;;;;;;5035789;28;20194;-81
2023/09/22 15:04:38;;;;;;;9.53;4.10;;;;;;;;;;4995402;28;20203;-76
2023/09/22 15:11:13;;;;;;;31.90;6.73;;;;;;;;;;4993048;28;20228;-76
2023/09/22 15:13:57;;;;;;;9.03;5.07;;;;;;;;;;4974381;28;20666;-75
2023/09/22 15:16:24;;;;;;;10.73;5.30;;;;;;;;;;5071668;28;20182;-82
2023/09/22 15:19:07;;;;;;;9.33;5.77;;;;;;;;;;5076983;28;20719;-81
2023/09/22 15:21:35;;;;;;;9.70;5.67;;;;;;;;;;5053376;28;20553;-77
2023/09/22 15:24:04;;;;;;;11.43;5.53;;;;;;;;;;5042539;28;20201;-76
2023/09/22 15:26:32;;;;;;;10.20;5.50;;;;;;;;;;5077059;28;20198;-78
2023/09/22 15:29:01;;;;;;;8.77;5.00;;;;;;;;;;5043075;28;20193;-72
2023/09/22 15:31:29;;;;;;;7.60;4.97;;;;;;;;;;5075861;28;20208;-72
2023/09/22 15:33:56;;;;;;;6.87;5.47;;;;;;;;;;5059369;28;20200;-71
2023/09/22 15:40:23;;;;;;;11.30;5.87;;;;;;;;;;5075780;28;20215;-71
2023/09/22 15:46:50;;;;;;;10.73;5.53;;;;;;;;;;5075943;28;20165;-71
2023/09/22 15:49:17;;;;;;;8.40;5.23;;;;;;;;;;5075442;28;20634;-72
2023/09/22 15:51:44;;;;;;;8.70;5.70;;;;;;;;;;5075436;28;20182;-73
2023/09/22 15:54:11;;;;;;;10.60;5.73;;;;;;;;;;5076023;28;20178;-72
2023/09/22 15:56:38;;;;;;;7.13;5.77;;;;;;;;;;5075461;28;20197;-72
2023/09/22 15:59:05;;;;;;;16.63;6.50;;;;;;;;;;5057430;28;20205;-72
2023/09/22 16:01:32;;;;;;;15.90;6.23;;;;;;;;;;5076090;28;20197;-72
2023/09/22 16:03:59;;;;;;;11.17;5.83;;;;;;;;;;5073222;28;20216;-72
2023/09/22 16:06:27;;;;;;;7.53;5.43;;;;;;;;;;5056869;28;20213;-72
2023/09/22 16:08:54;;;;;;;11.23;6.30;;;;;;;;;;5074366;28;20201;-72
2023/09/22 16:11:21;;;;;;;9.60;5.37;;;;;;;;;;5040030;28;20629;-72
2023/09/22 16:13:48;;;;;;;5.97;5.37;;;;;;;;;;5057576;28;20193;-72
2023/09/22 16:20:15;;;;;;;16.77;5.50;;;;;;;;;;5075030;28;20268;-72
2023/09/22 16:22:41;;;;;;;12.20;5.73;;;;;;;;;;5073833;28;20267;-72
2023/09/22 16:25:08;;;;;;;8.43;5.10;;;;;;;;;;5073331;28;20194;-72
2023/09/22 16:31:34;;;;;;;8.93;5.73;;;;;;;;;;5074107;28;20153;-72
2023/09/22 16:34:02;;;;;;;8.67;5.23;;;;;;;;;;5040207;28;20217;-72
2023/09/22 16:40:22;;;;;;;6.63;4.53;;;;;;;;;;5054271;28;20185;-72
2023/09/22 16:42:51;;;;;;;4.87;4.27;;;;;;;;;;5052712;28;20182;-72
2023/09/22 16:45:18;;;;;;;5.53;4.73;;;;;;;;;;5054671;28;20190;-72
2023/09/22 16:51:46;;;;;;;6.07;4.10;;;;;;;;;;5054157;28;20158;-72
2023/09/22 16:54:13;;;;;;;5.00;3.90;;;;;;;;;;5053080;28;20175;-71
2023/09/22 17:00:57;;;;;;;11.77;4.40;;;;;;;;;;5053687;28;20232;-72
2023/09/22 17:03:24;;;;;;;5.03;3.80;;;;;;;;;;5052325;28;20183;-71
2023/09/22 17:05:51;;;;;;;5.87;4.30;;;;;;;;;;5057800;28;20190;-72
2023/09/22 17:08:20;;;;;;;4.63;4.03;;;;;;;;;;5055355;28;20190;-72
2023/09/22 17:10:48;;;;;;;4.43;3.50;;;;;;;;;;5072348;28;20691;-71
2023/09/22 17:13:15;;;;;;;6.77;3.50;;;;;;;;;;5055354;28;20182;-72
2023/09/22 17:15:43;;;;;;;3.43;2.80;;;;;;;;;;5033755;28;20190;-72
2023/09/22 17:18:12;;;;;;;3.93;3.40;;;;;;;;;;5053229;28;20207;-71
2023/09/22 17:24:38;;;;;;;4.53;2.40;;;;;;;;;;5064876;28;20173;-71
2023/09/22 17:27:07;;;;;;;6.60;3.00;;;;;;;;;;5072250;28;20182;-71
2023/09/22 17:29:34;;;;;;;7.03;3.50;;;;;;;;;;5039664;28;20182;-70
2023/09/22 17:36:02;;;;;;;5.37;3.70;;;;;;;;;;5053908;28;20173;-70
2023/09/22 17:42:30;;;;;;;7.03;3.70;;;;;;;;;;5053462;28;20308;-71
2023/09/22 17:44:59;;;;;;;6.23;3.67;;;;;;;;;;5036282;28;20246;-70
2023/09/22 17:47:27;;;;;;;5.97;4.03;;;;;;;;;;5053347;28;20205;-70
2023/09/22 17:53:54;;;;;;;5.07;3.90;;;;;;;;;;5051387;28;20525;-70
2023/09/22 17:56:21;;;;;;;5.57;4.40;;;;;;;;;;5052082;28;20197;-71
2023/09/22 17:58:48;;;;;;;5.60;3.90;;;;;;;;;;5035760;28;20670;-71
2023/09/22 18:01:16;;;;;;;6.07;3.70;;;;;;;;;;5052309;28;20190;-71
2023/09/22 18:03:43;;;;;;;3.87;3.20;;;;;;;;;;5035767;28;20270;-71
2023/09/22 18:06:13;;;;;;;3.57;2.80;;;;;;;;;;5035540;28;20199;-71
2023/09/22 18:08:41;;;;;;;3.33;2.90;;;;;;;;;;5035890;28;20217;-71
2023/09/22 18:11:11;;;;;;;5.00;3.17;;;;;;;;;;5026709;28;20313;-71
2023/09/22 18:13:39;;;;;;;4.20;3.20;;;;;;;;;;5052132;28;20182;-71
2023/09/22 18:16:07;;;;;;;4.53;3.03;;;;;;;;;;5036200;28;20590;-71
2023/09/22 18:18:34;;;;;;;4.27;3.30;;;;;;;;;;5052697;28;20729;-71
2023/09/22 18:21:01;;;;;;;4.63;3.27;;;;;;;;;;5035784;28;20209;-71
2023/09/22 18:23:28;;;;;;;5.23;3.40;;;;;;;;;;5041580;28;20564;-71
2023/09/22 18:29:54;;;;;;;3.80;3.07;;;;;;;;;;5076354;28;20699;-71
2023/09/22 18:32:22;;;;;;;4.70;3.30;;;;;;;;;;5076614;28;20186;-71
2023/09/22 18:34:49;;;;;;;4.33;3.63;;;;;;;;;;5076613;28;20186;-71
2023/09/22 18:37:19;;;;;;;5.13;3.57;;;;;;;;;;5059083;28;20193;-71
2023/09/22 18:39:51;;;;;;;5.07;3.53;;;;;;;;;;5059339;28;20273;-71
2023/09/22 18:42:18;;;;;;;4.93;3.57;;;;;;;;;;5076411;28;20216;-71
2023/09/22 18:44:45;;;;;;;5.97;3.70;;;;;;;;;;5076620;28;20632;-71
2023/09/22 18:47:12;;;;;;;4.93;3.57;;;;;;;;;;5076277;28;20265;-71
2023/09/22 18:49:57;;;;;;;4.70;3.73;;;;;;;;;;5058683;28;20170;-71
2023/09/22 18:52:25;;;;;;;4.33;3.37;;;;;;;;;;5058906;28;20185;-71
2023/09/22 18:54:53;;;;;;;5.00;3.27;;;;;;;;;;5058497;28;20205;-70
2023/09/22 19:01:22;;;;;;;4.53;3.00;;;;;;;;;;5076201;28;20169;-71
2023/09/22 19:03:51;;;;;;;3.67;2.90;;;;;;;;;;5058432;28;20272;-71
2023/09/22 19:10:35;;;;;;;5.03;2.87;;;;;;;;;;5074715;28;20224;-71
2023/09/22 19:16:56;;;;;;;4.73;3.10;;;;;;;;;;5075897;28;20158;-71
2023/09/22 19:19:25;;;;;;;5.23;3.40;;;;;;;;;;5076101;28;20214;-71
2023/09/22 19:25:54;;;;;;;21.87;15.20;;;;;;;;;;5074729;28;20153;-71
2023/09/22 19:28:21;;;;;;;10.47;8.17;;;;;;;;;;5057889;28;20193;-72
2023/09/22 19:34:45;;;;;;;5.37;3.97;;;;;;;;;;5075433;28;20157;-71
2023/09/22 19:41:09;;;;;;;5.27;4.07;;;;;;;;;;5075385;28;20161;-71
2023/09/22 19:47:38;;;;;;;6.90;3.87;;;;;;;;;;5075145;28;20620;-71
2023/09/22 19:50:13;;;;;;;5.13;3.87;;;;;;;;;;5057618;28;20188;-71
2023/09/22 19:52:42;;;;;;;4.30;3.90;;;;;;;;;;5057072;28;20276;-70
2023/09/22 19:55:09;;;;;;;5.40;4.20;;;;;;;;;;5076371;28;20240;-71
2023/09/22 19:57:39;;;;;;;4.87;3.80;;;;;;;;;;5040822;28;20190;-71
2023/09/22 20:00:13;;;;;;;5.47;3.60;;;;;;;;;;5074858;28;20206;-82
2023/09/22 20:02:42;;;;;;;5.53;4.00;;;;;;;;;;5074492;28;20169;-78
2023/09/22 20:05:09;;;;;;;5.87;4.10;;;;;;;;;;5074703;28;20189;-75
2023/09/22 20:07:37;;;;;;;4.93;3.87;;;;;;;;;;5074867;28;20182;-75
2023/09/22 20:10:08;;;;;;;6.37;4.10;;;;;;;;;;5039978;28;20518;-83
2023/09/22 20:12:36;;;;;;;4.47;3.93;;;;;;;;;;5057162;28;20632;-84
2023/09/22 20:15:05;;;;;;;5.63;4.20;;;;;;;;;;5057419;28;20190;-84
2023/09/22 20:17:32;;;;;;;6.63;4.00;;;;;;;;;;5074890;28;20269;-82
2023/09/22 20:19:59;;;;;;;5.40;3.93;;;;;;;;;;5074563;28;20561;-84
2023/09/22 20:22:28;;;;;;;5.87;3.87;;;;;;;;;;5056897;28;20191;-77
2023/09/22 20:24:55;;;;;;;5.37;4.07;;;;;;;;;;5056047;28;20252;-75
2023/09/22 20:27:27;;;;;;;6.57;3.90;;;;;;;;;;5074569;28;20640;-73
2023/09/22 20:29:54;;;;;;;5.47;4.20;;;;;;;;;;5074683;28;20568;-73
2023/09/22 20:32:38;;;;;;;4.30;3.60;;;;;;;;;;5060022;28;20167;-74
2023/09/22 20:35:11;;;;;;;5.60;3.80;;;;;;;;;;5041121;28;20178;-77
2023/09/22 20:37:38;;;;;;;5.60;3.80;;;;;;;;;;5004472;28;20291;-79
2023/09/22 20:40:06;;;;;;;5.67;3.73;;;;;;;;;;5036688;28;20689;-83
2023/09/22 20:42:36;;;;;;;4.80;4.20;;;;;;;;;;5053437;28;20190;-79
2023/09/22 20:45:07;;;;;;;5.20;3.90;;;;;;;;;;5037218;28;20206;-77
2023/09/22 20:47:34;;;;;;;5.70;4.00;;;;;;;;;;5054575;28;20209;-84
2023/09/22 20:50:02;;;;;;;4.87;3.70;;;;;;;;;;5054723;28;20198;-82
2023/09/22 20:52:34;;;;;;;5.43;4.17;;;;;;;;;;5021529;28;20194;-83
2023/09/22 20:55:01;;;;;;;6.10;4.67;;;;;;;;;;5056983;28;20201;-84
2023/09/22 20:57:29;;;;;;;6.77;4.17;;;;;;;;;;5055630;28;20630;-77
2023/09/22 21:00:00;;;;;;;7.93;4.10;;;;;;;;;;5040239;28;20214;-85
2023/09/22 21:02:31;;;;;;;6.50;4.20;;;;;;;;;;5024609;28;20236;-81
2023/09/22 21:08:57;;;;;;;6.63;4.10;;;;;;;;;;5057692;28;20197;-82
2023/09/22 21:11:28;;;;;;;6.17;4.00;;;;;;;;;;5037352;28;20230;-86
2023/09/22 21:13:57;;;;;;;5.07;4.27;;;;;;;;;;5036380;28;20218;-73
2023/09/22 21:16:25;;;;;;;5.97;4.40;;;;;;;;;;5051876;28;20526;-72
2023/09/22 21:18:53;;;;;;;5.00;3.90;;;;;;;;;;5053952;28;20221;-73
2023/09/22 21:21:22;;;;;;;5.70;4.27;;;;;;;;;;5053105;28;20197;-72
2023/09/22 21:23:48;;;;;;;4.77;4.27;;;;;;;;;;5035423;28;20201;-73
2023/09/22 21:26:20;;;;;;;4.30;3.27;;;;;;;;;;5035901;28;20533;-73
2023/09/22 21:28:47;;;;;;;6.63;4.50;;;;;;;;;;5054125;28;20257;-73
2023/09/22 21:31:15;;;;;;;4.83;4.17;;;;;;;;;;5054063;28;20626;-73
2023/09/22 21:37:52;;;;;;;3.70;3.13;;;;;;;;;;5053552;28;20649;-73
2023/09/22 21:40:20;;;;;;;4.80;3.17;;;;;;;;;;5035590;28;20210;-73
2023/09/22 21:46:46;;;;;;;3.53;2.70;;;;;;;;;;5073486;28;20237;-73
2023/09/22 21:53:12;;;;;;;3.33;2.77;;;;;;;;;;5073419;28;20145;-72